Time;durP1;ratioP1;P1;durP2;ratioP2;P2;SDS_P1;SDS_P2;PMS_P1;PMS_P2;Temp;Humidity;BMP_temperature;BMP_pressure;BME280_temperature;BME280_humidity;BME280_pressure;Samples;Min_cycle;Max_cycle;Signal;HPM_P1;HPM_P2
2021/10/11 00:00:57;;;;;;;4.78;2.85;;;;;;;;;;5109354;28;20020;-48
2021/10/11 00:03:23;;;;;;;3.17;2.67;;;;;;;;;;5108947;28;20077;-48
2021/10/11 00:05:50;;;;;;;4.20;3.15;;;;;;;;;;5108506;28;20034;-49
2021/10/11 00:08:16;;;;;;;4.45;3.30;;;;;;;;;;5091294;28;20058;-50
2021/10/11 00:10:42;;;;;;;3.58;2.67;;;;;;;;;;5087366;28;20032;-47
2021/10/11 00:13:08;;;;;;;4.13;3.00;;;;;;;;;;5087552;28;20115;-54
2021/10/11 00:15:34;;;;;;;4.38;3.30;;;;;;;;;;5087938;28;20386;-51
2021/10/11 00:18:00;;;;;;;4.25;3.15;;;;;;;;;;5088753;28;20052;-47
2021/10/11 00:20:26;;;;;;;4.63;3.50;;;;;;;;;;5088562;28;20028;-48
2021/10/11 00:22:53;;;;;;;4.35;3.35;;;;;;;;;;5087210;28;20074;-49
2021/10/11 00:25:19;;;;;;;5.75;3.60;;;;;;;;;;5087629;28;20035;-47
2021/10/11 00:27:45;;;;;;;4.50;3.20;;;;;;;;;;5087905;28;20099;-50
2021/10/11 00:30:12;;;;;;;4.90;3.55;;;;;;;;;;5087903;28;20051;-47
2021/10/11 00:32:39;;;;;;;4.15;3.20;;;;;;;;;;5087417;28;20063;-48
2021/10/11 00:35:06;;;;;;;4.70;2.92;;;;;;;;;;5087333;28;20047;-47
2021/10/11 00:37:32;;;;;;;3.90;3.15;;;;;;;;;;5087458;28;20538;-49
2021/10/11 00:39:58;;;;;;;4.15;2.97;;;;;;;;;;5088014;28;20539;-48
2021/10/11 00:42:24;;;;;;;5.60;3.22;;;;;;;;;;5087239;28;20020;-48
2021/10/11 00:44:50;;;;;;;4.55;3.30;;;;;;;;;;5086569;28;20055;-47
2021/10/11 00:47:16;;;;;;;6.18;3.78;;;;;;;;;;5087863;28;20035;-48
2021/10/11 00:49:42;;;;;;;4.53;3.22;;;;;;;;;;5087882;28;20383;-47
2021/10/11 00:52:08;;;;;;;4.50;3.13;;;;;;;;;;5087089;28;20491;-48
2021/10/11 00:54:34;;;;;;;4.82;3.15;;;;;;;;;;5087424;28;20059;-47
2021/10/11 00:57:01;;;;;;;4.07;3.08;;;;;;;;;;5087728;28;20020;-48
2021/10/11 00:59:27;;;;;;;6.28;3.45;;;;;;;;;;5087818;28;20031;-48
2021/10/11 01:01:53;;;;;;;3.65;2.78;;;;;;;;;;5087417;28;20020;-47
2021/10/11 01:04:19;;;;;;;5.28;3.42;;;;;;;;;;5086614;28;20115;-47
2021/10/11 01:06:45;;;;;;;4.82;3.50;;;;;;;;;;5068287;28;20497;-49
2021/10/11 01:09:12;;;;;;;3.60;3.00;;;;;;;;;;5087079;28;20558;-48
2021/10/11 01:11:38;;;;;;;4.63;3.20;;;;;;;;;;5086582;28;20020;-48
2021/10/11 01:14:05;;;;;;;5.82;3.88;;;;;;;;;;5086598;28;20035;-47
2021/10/11 01:16:31;;;;;;;4.63;3.42;;;;;;;;;;5086935;28;20024;-50
2021/10/11 01:18:58;;;;;;;3.88;3.08;;;;;;;;;;5086844;28;20431;-47
2021/10/11 01:21:24;;;;;;;5.78;3.10;;;;;;;;;;5086206;28;20052;-47
2021/10/11 01:23:50;;;;;;;5.30;3.95;;;;;;;;;;5101951;28;20032;-47
2021/10/11 01:26:16;;;;;;;4.85;3.90;;;;;;;;;;5106609;28;20042;-48
2021/10/11 01:28:42;;;;;;;6.55;4.10;;;;;;;;;;5098015;28;20143;-47
2021/10/11 01:31:09;;;;;;;7.10;3.65;;;;;;;;;;5086719;28;20102;-47
2021/10/11 01:33:35;;;;;;;4.82;3.42;;;;;;;;;;5086531;28;20048;-48
2021/10/11 01:36:01;;;;;;;7.10;3.28;;;;;;;;;;5086791;28;20016;-48
2021/10/11 01:38:27;;;;;;;5.22;3.67;;;;;;;;;;5087543;28;20437;-48
2021/10/11 01:40:53;;;;;;;4.68;3.42;;;;;;;;;;5086415;28;20099;-48
2021/10/11 01:43:19;;;;;;;4.95;3.38;;;;;;;;;;5086481;28;20043;-48
2021/10/11 01:45:47;;;;;;;4.07;3.25;;;;;;;;;;5086635;28;20425;-48
2021/10/11 01:48:14;;;;;;;4.85;3.58;;;;;;;;;;5086667;28;20086;-47
2021/10/11 01:50:40;;;;;;;4.35;3.30;;;;;;;;;;5088126;28;20030;-48
2021/10/11 01:53:06;;;;;;;5.18;3.63;;;;;;;;;;5086301;28;20079;-48
2021/10/11 01:55:32;;;;;;;5.30;3.30;;;;;;;;;;5086543;28;20024;-48
2021/10/11 01:57:58;;;;;;;5.03;3.63;;;;;;;;;;5087085;28;20453;-48
2021/10/11 02:00:24;;;;;;;5.30;3.42;;;;;;;;;;5086781;28;20016;-48
2021/10/11 02:02:51;;;;;;;3.85;3.25;;;;;;;;;;5086150;28;20481;-47
2021/10/11 02:05:17;;;;;;;4.35;3.72;;;;;;;;;;5068070;28;20398;-50
2021/10/11 02:07:44;;;;;;;5.05;3.60;;;;;;;;;;5086359;28;20055;-49
2021/10/11 02:10:10;;;;;;;5.38;3.55;;;;;;;;;;5085925;28;20028;-48
2021/10/11 02:12:36;;;;;;;4.63;3.70;;;;;;;;;;5088026;28;20039;-49
2021/10/11 02:15:03;;;;;;;6.07;3.67;;;;;;;;;;5089850;28;20063;-58
2021/10/11 02:17:29;;;;;;;6.25;3.72;;;;;;;;;;5090743;28;20521;-51
2021/10/11 02:19:55;;;;;;;5.00;3.25;;;;;;;;;;5089947;28;20020;-51
2021/10/11 02:22:22;;;;;;;4.30;3.28;;;;;;;;;;5090317;28;20048;-48
2021/10/11 02:24:48;;;;;;;4.78;3.30;;;;;;;;;;5090145;28;20024;-48
2021/10/11 02:27:14;;;;;;;4.50;3.10;;;;;;;;;;5090691;28;20394;-47
2021/10/11 02:29:40;;;;;;;4.90;3.53;;;;;;;;;;5090344;28;20032;-47
2021/10/11 02:32:06;;;;;;;4.68;3.33;;;;;;;;;;5089999;28;20549;-48
2021/10/11 02:34:33;;;;;;;4.10;3.28;;;;;;;;;;5090349;28;20028;-48
2021/10/11 02:36:59;;;;;;;5.00;3.75;;;;;;;;;;5090325;28;20082;-49
2021/10/11 02:39:25;;;;;;;5.00;3.50;;;;;;;;;;5090048;28;20031;-47
2021/10/11 02:41:51;;;;;;;5.55;3.95;;;;;;;;;;5089734;28;20858;-47
2021/10/11 02:44:17;;;;;;;6.70;4.00;;;;;;;;;;5090233;28;20031;-48
2021/10/11 02:46:43;;;;;;;4.57;3.10;;;;;;;;;;5089940;28;20028;-48
2021/10/11 02:49:09;;;;;;;4.22;3.40;;;;;;;;;;5090217;28;20403;-51
2021/10/11 02:51:35;;;;;;;4.43;3.33;;;;;;;;;;5089594;28;20028;-48
2021/10/11 02:54:01;;;;;;;4.15;3.33;;;;;;;;;;5089520;28;20020;-50
2021/10/11 02:56:27;;;;;;;4.65;3.75;;;;;;;;;;5090464;28;20399;-51
2021/10/11 02:58:53;;;;;;;4.60;3.55;;;;;;;;;;5089568;28;20502;-51
2021/10/11 03:01:19;;;;;;;4.82;3.55;;;;;;;;;;5089761;28;20546;-48
2021/10/11 03:03:45;;;;;;;4.57;3.28;;;;;;;;;;5071753;28;20034;-48
2021/10/11 03:06:11;;;;;;;4.88;3.85;;;;;;;;;;5071222;28;20576;-49
2021/10/11 03:08:37;;;;;;;5.10;3.67;;;;;;;;;;5089687;28;20543;-48
2021/10/11 03:11:04;;;;;;;5.82;4.30;;;;;;;;;;5089461;28;20024;-46
2021/10/11 03:13:30;;;;;;;5.57;3.75;;;;;;;;;;5090039;28;20059;-47
2021/10/11 03:15:57;;;;;;;5.28;3.88;;;;;;;;;;5089840;28;20035;-49
2021/10/11 03:18:23;;;;;;;6.47;4.05;;;;;;;;;;5094142;28;20058;-48
2021/10/11 03:20:49;;;;;;;6.57;4.25;;;;;;;;;;5091096;28;20112;-52
2021/10/11 03:23:15;;;;;;;5.63;4.22;;;;;;;;;;5109625;28;20397;-50
2021/10/11 03:25:41;;;;;;;4.95;3.90;;;;;;;;;;5109829;28;20390;-51
2021/10/11 03:28:07;;;;;;;4.63;3.88;;;;;;;;;;5109329;28;20053;-48
2021/10/11 03:30:34;;;;;;;5.28;4.05;;;;;;;;;;5109316;28;20397;-48
2021/10/11 03:33:00;;;;;;;5.80;4.18;;;;;;;;;;5109955;28;20028;-47
2021/10/11 03:35:26;;;;;;;4.57;3.72;;;;;;;;;;5109502;28;20032;-48
2021/10/11 03:37:52;;;;;;;9.35;4.13;;;;;;;;;;5109440;28;20537;-48
2021/10/11 03:40:18;;;;;;;5.65;3.50;;;;;;;;;;5109456;28;20020;-48
2021/10/11 03:42:44;;;;;;;5.15;3.72;;;;;;;;;;5108941;28;20472;-48
2021/10/11 03:45:11;;;;;;;7.45;4.32;;;;;;;;;;5085590;28;20090;-48
2021/10/11 03:47:40;;;;;;;6.15;4.47;;;;;;;;;;5088968;28;20513;-48
2021/10/11 03:50:07;;;;;;;5.88;3.90;;;;;;;;;;5088384;28;20055;-50
2021/10/11 03:52:33;;;;;;;4.93;3.85;;;;;;;;;;5088854;28;20035;-47
2021/10/11 03:54:59;;;;;;;6.00;4.50;;;;;;;;;;5089289;28;20471;-49
2021/10/11 03:57:25;;;;;;;5.30;4.13;;;;;;;;;;5088701;28;20390;-48
2021/10/11 03:59:51;;;;;;;6.00;4.20;;;;;;;;;;5088570;28;20287;-51
2021/10/11 04:02:18;;;;;;;4.95;3.92;;;;;;;;;;5088213;28;20039;-47
2021/10/11 04:04:44;;;;;;;6.15;4.13;;;;;;;;;;5108163;28;20088;-48
2021/10/11 04:07:15;;;;;;;5.93;3.95;;;;;;;;;;5090310;28;20479;-47
2021/10/11 04:09:43;;;;;;;6.18;4.78;;;;;;;;;;5108947;28;20107;-49
2021/10/11 04:12:18;;;;;;;6.65;4.30;;;;;;;;;;5108504;28;20016;-47
2021/10/11 04:14:44;;;;;;;5.28;4.18;;;;;;;;;;5107833;28;20475;-47
2021/10/11 04:17:12;;;;;;;6.63;4.65;;;;;;;;;;5107732;28;20015;-53
2021/10/11 04:19:38;;;;;;;5.47;4.00;;;;;;;;;;5106961;28;20107;-53
2021/10/11 04:22:04;;;;;;;5.90;4.40;;;;;;;;;;5107004;28;20094;-51
2021/10/11 04:24:31;;;;;;;7.13;4.88;;;;;;;;;;5106418;28;20034;-47
2021/10/11 04:26:57;;;;;;;6.63;4.50;;;;;;;;;;5087196;28;20415;-48
2021/10/11 04:29:23;;;;;;;6.18;4.45;;;;;;;;;;5086504;28;20491;-47
2021/10/11 04:31:50;;;;;;;7.03;4.10;;;;;;;;;;5086299;28;20102;-46
2021/10/11 04:34:16;;;;;;;5.80;3.80;;;;;;;;;;5085574;28;20032;-49
2021/10/11 04:36:42;;;;;;;6.10;4.20;;;;;;;;;;5086725;28;20231;-47
2021/10/11 04:39:08;;;;;;;4.97;3.95;;;;;;;;;;5086032;28;20016;-48
2021/10/11 04:41:34;;;;;;;5.30;3.95;;;;;;;;;;5086385;28;20020;-47
2021/10/11 04:44:01;;;;;;;7.15;4.10;;;;;;;;;;5086340;28;20082;-48
2021/10/11 04:46:28;;;;;;;6.65;4.30;;;;;;;;;;5086821;28;20512;-48
2021/10/11 04:48:55;;;;;;;6.10;4.13;;;;;;;;;;5086041;28;20024;-46
2021/10/11 04:51:21;;;;;;;6.28;4.30;;;;;;;;;;5086203;28;20126;-47
2021/10/11 04:53:47;;;;;;;5.20;3.83;;;;;;;;;;5086003;28;20032;-48
2021/10/11 04:56:13;;;;;;;4.88;3.95;;;;;;;;;;5086097;28;20082;-47
2021/10/11 04:58:40;;;;;;;5.32;4.30;;;;;;;;;;5086354;28;20607;-47
2021/10/11 05:01:06;;;;;;;5.45;4.60;;;;;;;;;;5085801;28;20551;-47
2021/10/11 05:03:33;;;;;;;5.45;4.20;;;;;;;;;;5085949;28;20039;-48
2021/10/11 05:06:00;;;;;;;5.72;4.10;;;;;;;;;;5085907;28;20031;-47
2021/10/11 05:08:26;;;;;;;6.72;4.80;;;;;;;;;;5086038;28;20580;-47
2021/10/11 05:10:53;;;;;;;7.45;5.20;;;;;;;;;;5085871;28;20024;-48
2021/10/11 05:13:20;;;;;;;7.05;5.05;;;;;;;;;;5085931;28;20111;-47
2021/10/11 05:15:47;;;;;;;8.07;5.50;;;;;;;;;;5085361;28;20020;-47
2021/10/11 05:18:13;;;;;;;6.57;4.75;;;;;;;;;;5085685;28;20071;-48
2021/10/11 05:20:45;;;;;;;6.10;4.68;;;;;;;;;;5085334;28;20016;-47
2021/10/11 05:23:11;;;;;;;6.95;5.18;;;;;;;;;;5085688;28;20111;-47
2021/10/11 05:25:37;;;;;;;7.30;5.35;;;;;;;;;;5085026;28;20166;-47
2021/10/11 05:28:04;;;;;;;9.55;6.00;;;;;;;;;;5085420;28;20406;-47
2021/10/11 05:30:30;;;;;;;7.20;4.80;;;;;;;;;;5077679;28;20032;-47
2021/10/11 05:32:56;;;;;;;7.13;5.10;;;;;;;;;;5085155;28;20032;-47
2021/10/11 05:35:23;;;;;;;7.63;4.93;;;;;;;;;;5085231;28;20031;-49
2021/10/11 05:37:49;;;;;;;7.35;5.32;;;;;;;;;;5067288;28;20087;-48
2021/10/11 05:40:16;;;;;;;7.95;5.05;;;;;;;;;;5086734;28;20019;-51
2021/10/11 05:42:42;;;;;;;7.50;4.88;;;;;;;;;;5086093;28;20103;-48
2021/10/11 05:45:08;;;;;;;6.47;4.40;;;;;;;;;;5105703;28;20530;-49
2021/10/11 05:47:34;;;;;;;7.13;4.72;;;;;;;;;;5097854;28;20111;-48
2021/10/11 05:50:01;;;;;;;6.07;4.30;;;;;;;;;;5103748;28;20423;-48
2021/10/11 05:52:27;;;;;;;6.10;4.53;;;;;;;;;;5105446;28;20712;-49
2021/10/11 05:54:53;;;;;;;6.57;4.57;;;;;;;;;;5106336;28;20027;-48
2021/10/11 05:57:19;;;;;;;6.53;4.45;;;;;;;;;;5107253;28;20073;-49
2021/10/11 05:59:45;;;;;;;5.85;4.47;;;;;;;;;;5106977;28;20018;-48
2021/10/11 06:02:11;;;;;;;5.63;4.47;;;;;;;;;;5086800;28;20505;-49
2021/10/11 06:04:37;;;;;;;7.95;4.60;;;;;;;;;;5086370;28;20585;-48
2021/10/11 06:07:04;;;;;;;7.13;4.93;;;;;;;;;;5069165;28;20024;-48
2021/10/11 06:09:30;;;;;;;7.63;4.25;;;;;;;;;;5078875;28;20027;-49
2021/10/11 06:11:56;;;;;;;6.60;4.95;;;;;;;;;;5085937;28;20538;-50
2021/10/11 06:14:22;;;;;;;6.47;4.45;;;;;;;;;;5102611;28;20031;-49
2021/10/11 06:16:48;;;;;;;7.35;4.55;;;;;;;;;;5105108;28;20024;-48
2021/10/11 06:19:14;;;;;;;5.75;4.18;;;;;;;;;;5105589;28;20031;-54
2021/10/11 06:21:40;;;;;;;5.78;4.85;;;;;;;;;;5105135;28;20027;-53
2021/10/11 06:24:09;;;;;;;6.18;4.40;;;;;;;;;;5091759;28;20445;-52
2021/10/11 06:26:36;;;;;;;5.90;4.00;;;;;;;;;;5086255;28;20020;-49
2021/10/11 06:29:02;;;;;;;6.05;4.53;;;;;;;;;;5093481;28;20436;-48
2021/10/11 06:31:28;;;;;;;5.32;3.90;;;;;;;;;;5097753;28;20059;-50
2021/10/11 06:33:54;;;;;;;5.35;4.20;;;;;;;;;;5096899;28;20479;-48
2021/10/11 06:36:20;;;;;;;6.78;4.63;;;;;;;;;;5100513;28;20483;-48
2021/10/11 06:38:46;;;;;;;4.95;3.83;;;;;;;;;;5102608;28;20054;-48
2021/10/11 06:41:12;;;;;;;6.68;4.43;;;;;;;;;;5114312;28;20390;-48
2021/10/11 06:43:38;;;;;;;6.57;4.53;;;;;;;;;;5127545;28;20027;-48
2021/10/11 06:46:04;;;;;;;5.78;4.45;;;;;;;;;;5122489;28;20556;-48
2021/10/11 06:48:30;;;;;;;5.75;4.13;;;;;;;;;;5098678;28;20107;-48
2021/10/11 06:50:56;;;;;;;6.82;4.30;;;;;;;;;;5096292;28;20044;-48
2021/10/11 06:53:22;;;;;;;5.97;4.43;;;;;;;;;;5122952;28;20558;-49
2021/10/11 06:55:48;;;;;;;6.20;4.32;;;;;;;;;;5127390;28;20027;-48
2021/10/11 06:58:14;;;;;;;7.10;4.88;;;;;;;;;;5116315;27;20076;-48
2021/10/11 07:00:41;;;;;;;7.22;5.35;;;;;;;;;;5091695;28;20031;-48
2021/10/11 07:03:07;;;;;;;7.57;5.00;;;;;;;;;;5108233;28;20578;-47
2021/10/11 07:05:34;;;;;;;6.38;4.80;;;;;;;;;;5100109;28;20032;-49
2021/10/11 07:08:08;;;;;;;5.45;4.53;;;;;;;;;;5090909;28;20032;-49
2021/10/11 07:10:34;;;;;;;5.97;4.70;;;;;;;;;;5089579;28;20020;-48
2021/10/11 07:13:02;;;;;;;5.93;4.28;;;;;;;;;;5089712;28;20032;-48
2021/10/11 07:15:29;;;;;;;5.90;4.28;;;;;;;;;;5089926;28;20028;-48
2021/10/11 07:17:56;;;;;;;6.25;4.25;;;;;;;;;;5104008;28;20035;-49
2021/10/11 07:20:22;;;;;;;5.65;4.25;;;;;;;;;;5105474;28;20097;-49
2021/10/11 07:22:48;;;;;;;5.53;4.40;;;;;;;;;;5100136;28;20031;-48
2021/10/11 07:25:14;;;;;;;6.20;4.50;;;;;;;;;;5095051;28;20039;-48
2021/10/11 07:27:40;;;;;;;6.10;4.25;;;;;;;;;;5102138;28;20098;-48
2021/10/11 07:30:07;;;;;;;5.50;4.22;;;;;;;;;;5109477;28;20028;-49
2021/10/11 07:32:33;;;;;;;6.70;4.22;;;;;;;;;;5094543;28;20043;-48
2021/10/11 07:34:59;;;;;;;6.97;4.40;;;;;;;;;;5089614;28;20103;-48
2021/10/11 07:37:25;;;;;;;5.40;3.80;;;;;;;;;;5110041;28;20038;-51
2021/10/11 07:39:52;;;;;;;5.82;3.65;;;;;;;;;;5109037;27;20051;-49
2021/10/11 07:42:18;;;;;;;4.78;3.80;;;;;;;;;;5095817;28;20028;-48
2021/10/11 07:44:44;;;;;;;6.28;4.25;;;;;;;;;;5093615;28;20032;-51
2021/10/11 07:47:10;;;;;;;6.63;4.25;;;;;;;;;;5088728;27;20042;-48
2021/10/11 07:49:37;;;;;;;6.60;4.90;;;;;;;;;;5100735;27;20069;-48
2021/10/11 07:52:04;;;;;;;6.95;4.90;;;;;;;;;;5093595;28;20512;-47
2021/10/11 07:54:30;;;;;;;7.28;4.95;;;;;;;;;;5104432;28;20034;-47
2021/10/11 07:56:57;;;;;;;7.28;5.30;;;;;;;;;;5107712;28;20478;-48
2021/10/11 07:59:27;;;;;;;5.72;4.30;;;;;;;;;;5108027;28;20023;-47
2021/10/11 08:01:53;;;;;;;6.15;4.40;;;;;;;;;;5104383;28;20047;-50
2021/10/11 08:04:19;;;;;;;8.10;4.55;;;;;;;;;;5108791;28;20452;-49
2021/10/11 08:06:45;;;;;;;7.45;4.93;;;;;;;;;;5091167;28;20558;-49
2021/10/11 08:09:11;;;;;;;6.85;4.90;;;;;;;;;;5087436;28;20526;-52
2021/10/11 08:11:40;;;;;;;6.72;4.68;;;;;;;;;;5090102;28;20756;-48
2021/10/11 08:14:06;;;;;;;6.97;5.07;;;;;;;;;;5105517;27;20119;-50
2021/10/11 08:16:32;;;;;;;6.68;5.10;;;;;;;;;;5087974;28;20036;-49
2021/10/11 08:18:58;;;;;;;5.85;4.22;;;;;;;;;;5069601;28;20020;-52
2021/10/11 08:21:25;;;;;;;7.60;5.18;;;;;;;;;;5095096;28;20028;-47
2021/10/11 08:23:53;;;;;;;6.70;4.68;;;;;;;;;;5111417;27;20034;-56
2021/10/11 08:26:20;;;;;;;5.15;3.92;;;;;;;;;;5090946;28;20090;-49
2021/10/11 08:28:46;;;;;;;6.30;4.45;;;;;;;;;;5094158;28;20111;-51
2021/10/11 08:31:12;;;;;;;5.85;4.00;;;;;;;;;;5091089;28;20118;-48
2021/10/11 08:33:38;;;;;;;5.38;3.88;;;;;;;;;;5108025;28;20047;-49
2021/10/11 08:36:05;;;;;;;6.05;4.10;;;;;;;;;;5101584;28;20514;-49
2021/10/11 08:38:32;;;;;;;4.63;3.75;;;;;;;;;;5106704;28;20027;-48
2021/10/11 08:40:58;;;;;;;5.05;4.18;;;;;;;;;;5106295;28;20019;-51
2021/10/11 08:43:24;;;;;;;6.15;4.30;;;;;;;;;;5106959;28;20110;-48
2021/10/11 08:45:51;;;;;;;5.88;4.35;;;;;;;;;;5106373;28;20127;-48
2021/10/11 08:48:18;;;;;;;5.47;4.10;;;;;;;;;;5107841;28;20782;-48
2021/10/11 08:50:44;;;;;;;5.95;4.55;;;;;;;;;;5108138;28;20024;-48
2021/10/11 08:53:10;;;;;;;7.03;4.80;;;;;;;;;;5107721;28;20063;-48
2021/10/11 08:55:36;;;;;;;7.13;4.63;;;;;;;;;;5107777;28;20363;-48
2021/10/11 08:58:04;;;;;;;5.05;3.95;;;;;;;;;;5107395;28;20577;-48
2021/10/11 09:00:34;;;;;;;5.38;3.90;;;;;;;;;;5107817;28;20574;-47
2021/10/11 09:03:01;;;;;;;5.82;4.13;;;;;;;;;;5091231;28;20020;-53
2021/10/11 09:05:29;;;;;;;6.97;4.38;;;;;;;;;;5088996;28;20514;-48
2021/10/11 09:07:59;;;;;;;5.75;4.10;;;;;;;;;;5108134;28;20031;-52
2021/10/11 09:10:25;;;;;;;4.68;3.63;;;;;;;;;;5108182;28;20020;-49
2021/10/11 09:12:51;;;;;;;4.93;3.60;;;;;;;;;;5107333;28;20089;-52
2021/10/11 09:15:18;;;;;;;5.63;4.05;;;;;;;;;;5107444;28;20035;-51
2021/10/11 09:17:51;;;;;;;5.70;4.18;;;;;;;;;;5107352;28;20088;-47
2021/10/11 09:20:19;;;;;;;5.95;3.90;;;;;;;;;;5090129;28;20356;-48
2021/10/11 09:22:47;;;;;;;5.82;4.05;;;;;;;;;;5086854;28;20037;-50
2021/10/11 09:25:14;;;;;;;5.20;4.03;;;;;;;;;;5097442;28;20031;-51
2021/10/11 09:27:49;;;;;;;4.97;3.88;;;;;;;;;;5108158;28;20518;-47
2021/10/11 09:30:16;;;;;;;7.90;4.30;;;;;;;;;;5105869;28;20430;-47
2021/10/11 09:32:42;;;;;;;5.60;4.10;;;;;;;;;;5106981;28;20023;-51
2021/10/11 09:35:09;;;;;;;5.10;3.88;;;;;;;;;;5107543;28;20149;-47
2021/10/11 09:37:36;;;;;;;5.45;4.25;;;;;;;;;;5102366;28;20020;-49
2021/10/11 09:40:03;;;;;;;5.35;3.85;;;;;;;;;;5086671;28;20528;-47
2021/10/11 09:42:29;;;;;;;5.60;4.22;;;;;;;;;;5086563;28;20028;-47
2021/10/11 09:44:57;;;;;;;5.00;3.78;;;;;;;;;;5086765;28;20394;-47
2021/10/11 09:47:38;;;;;;;4.65;3.47;;;;;;;;;;5086388;28;20028;-48
2021/10/11 09:50:08;;;;;;;5.47;3.63;;;;;;;;;;5086426;28;20185;-47
2021/10/11 09:52:35;;;;;;;4.35;3.58;;;;;;;;;;5086416;28;20020;-47
2021/10/11 09:55:01;;;;;;;4.30;3.42;;;;;;;;;;5086510;28;20028;-48
2021/10/11 09:57:28;;;;;;;4.93;3.63;;;;;;;;;;5086410;28;20027;-48
2021/10/11 09:59:55;;;;;;;5.07;3.53;;;;;;;;;;5101465;28;20028;-48
2021/10/11 10:02:26;;;;;;;5.47;3.75;;;;;;;;;;5106804;28;20028;-50
2021/10/11 10:04:53;;;;;;;5.05;3.97;;;;;;;;;;5106678;28;20027;-51
2021/10/11 10:07:19;;;;;;;4.03;3.03;;;;;;;;;;5106236;28;20034;-52
2021/10/11 10:09:47;;;;;;;4.50;3.35;;;;;;;;;;5106591;28;20039;-50
2021/10/11 10:12:14;;;;;;;5.43;3.88;;;;;;;;;;5106722;28;20528;-49
2021/10/11 10:14:40;;;;;;;4.55;3.33;;;;;;;;;;5107355;28;20032;-52
2021/10/11 10:17:07;;;;;;;4.20;3.22;;;;;;;;;;5106308;28;20020;-51
2021/10/11 10:19:37;;;;;;;4.88;3.40;;;;;;;;;;5103216;28;20028;-48
2021/10/11 10:22:10;;;;;;;4.32;3.33;;;;;;;;;;5085825;28;20020;-47
2021/10/11 10:24:36;;;;;;;4.53;2.95;;;;;;;;;;5085064;28;20028;-47
2021/10/11 10:27:06;;;;;;;4.82;3.67;;;;;;;;;;5085287;28;20032;-56
2021/10/11 10:29:41;;;;;;;4.57;3.22;;;;;;;;;;5086033;28;20074;-48
2021/10/11 10:32:07;;;;;;;6.40;3.58;;;;;;;;;;5086566;28;20016;-49
2021/10/11 10:34:34;;;;;;;6.63;4.30;;;;;;;;;;5090264;28;20055;-48
2021/10/11 10:37:01;;;;;;;5.78;3.83;;;;;;;;;;5089754;28;20027;-48
2021/10/11 10:39:36;;;;;;;4.80;3.53;;;;;;;;;;5091805;28;20062;-48
2021/10/11 10:42:02;;;;;;;4.03;3.55;;;;;;;;;;5093240;28;20032;-48
2021/10/11 10:44:28;;;;;;;7.47;3.97;;;;;;;;;;5104693;28;20046;-48
2021/10/11 10:46:56;;;;;;;3.90;3.38;;;;;;;;;;5097836;28;20070;-49
2021/10/11 10:49:39;;;;;;;4.00;3.10;;;;;;;;;;5098148;28;20074;-48
2021/10/11 10:52:13;;;;;;;4.60;3.45;;;;;;;;;;5093440;28;20035;-47
2021/10/11 10:54:41;;;;;;;4.07;3.67;;;;;;;;;;5110995;28;20028;-49
2021/10/11 10:57:07;;;;;;;4.30;3.30;;;;;;;;;;5091965;28;20694;-48
2021/10/11 10:59:34;;;;;;;3.88;3.08;;;;;;;;;;5096221;28;20790;-48
2021/10/11 11:02:18;;;;;;;3.55;2.90;;;;;;;;;;5098433;27;20023;-47
2021/10/11 11:04:44;;;;;;;;;;;;;;;;;;5101533;28;20123;-48
2021/10/11 11:07:12;;;;;;;3.85;3.00;;;;;;;;;;5106042;28;20001;-49
2021/10/11 11:09:39;;;;;;;4.72;3.35;;;;;;;;;;5103768;27;20028;-51
2021/10/11 11:12:05;;;;;;;5.15;3.45;;;;;;;;;;5096202;28;20059;-49
2021/10/11 11:14:31;;;;;;;3.63;2.78;;;;;;;;;;5100149;28;20632;-48
2021/10/11 11:16:57;;;;;;;5.25;3.40;;;;;;;;;;5096697;28;20031;-48
2021/10/11 11:19:23;;;;;;;4.70;3.40;;;;;;;;;;5091259;28;20055;-48
2021/10/11 11:21:56;;;;;;;4.32;3.38;;;;;;;;;;5101670;28;20443;-50
2021/10/11 11:24:22;;;;;;;3.50;2.88;;;;;;;;;;5098944;28;20107;-50
2021/10/11 11:26:48;;;;;;;4.38;3.15;;;;;;;;;;5099474;28;20157;-52
2021/10/11 11:29:17;;;;;;;4.55;3.45;;;;;;;;;;5091162;28;20403;-50
2021/10/11 11:31:55;;;;;;;4.53;3.28;;;;;;;;;;5095211;28;20184;-49
2021/10/11 11:34:22;;;;;;;4.60;3.22;;;;;;;;;;5089716;28;20502;-49
2021/10/11 11:36:55;;;;;;;4.63;3.47;;;;;;;;;;5103112;28;20750;-49
2021/10/11 11:39:22;;;;;;;3.20;2.83;;;;;;;;;;5091584;28;20052;-49
2021/10/11 11:41:55;;;;;;;4.63;3.50;;;;;;;;;;5091417;28;20860;-48
2021/10/11 11:44:27;;;;;;;3.42;3.10;;;;;;;;;;5103213;28;20730;-49
2021/10/11 11:47:10;;;;;;;4.00;3.03;;;;;;;;;;5108129;28;20039;-48
2021/10/11 11:49:37;;;;;;;3.95;2.97;;;;;;;;;;5108338;28;20046;-47
2021/10/11 11:52:07;;;;;;;4.13;3.25;;;;;;;;;;5104576;28;20036;-49
2021/10/11 11:54:34;;;;;;;4.75;3.53;;;;;;;;;;5093719;28;20047;-48
2021/10/11 11:57:00;;;;;;;4.25;3.20;;;;;;;;;;5105997;28;20035;-48
2021/10/11 11:59:27;;;;;;;3.55;3.03;;;;;;;;;;5103551;28;20445;-49
2021/10/11 12:01:54;;;;;;;4.28;3.50;;;;;;;;;;5104288;28;20490;-47
2021/10/11 12:04:20;;;;;;;3.92;3.08;;;;;;;;;;5107890;28;22068;-49
2021/10/11 12:06:47;;;;;;;4.95;3.53;;;;;;;;;;5108599;28;20800;-47
2021/10/11 12:09:13;;;;;;;3.63;2.97;;;;;;;;;;5107504;28;20030;-48
2021/10/11 12:11:39;;;;;;;4.43;3.28;;;;;;;;;;5108938;28;20574;-47
2021/10/11 12:14:06;;;;;;;4.00;3.42;;;;;;;;;;5106618;28;20520;-50
2021/10/11 12:16:33;;;;;;;3.63;2.97;;;;;;;;;;5105176;28;20077;-49
2021/10/11 12:19:01;;;;;;;4.10;3.30;;;;;;;;;;5106520;28;20126;-52
2021/10/11 12:21:29;;;;;;;4.30;3.47;;;;;;;;;;5106018;28;20023;-51
2021/10/11 12:23:56;;;;;;;3.85;3.15;;;;;;;;;;5088149;28;20594;-48
2021/10/11 12:26:24;;;;;;;3.70;3.15;;;;;;;;;;5104822;28;20035;-51
2021/10/11 12:28:50;;;;;;;4.60;3.35;;;;;;;;;;5101363;28;20086;-53
2021/10/11 12:31:19;;;;;;;3.78;3.38;;;;;;;;;;5095604;28;20477;-52
2021/10/11 12:33:46;;;;;;;3.97;3.10;;;;;;;;;;5106792;28;20424;-51
2021/10/11 12:36:12;;;;;;;3.97;3.22;;;;;;;;;;5105013;28;20042;-49
2021/10/11 12:38:41;;;;;;;3.20;2.90;;;;;;;;;;5087973;28;20528;-50
2021/10/11 12:45:12;;;;;;;5.05;3.20;;;;;;;;;;5100743;27;20116;-48
2021/10/11 12:47:38;;;;;;;3.95;3.15;;;;;;;;;;5092075;28;20768;-49
2021/10/11 12:50:24;;;;;;;3.45;2.80;;;;;;;;;;5101429;28;20046;-47
2021/10/11 12:52:50;;;;;;;3.90;3.10;;;;;;;;;;5104123;28;20032;-47
2021/10/11 12:55:21;;;;;;;3.45;3.13;;;;;;;;;;5101390;28;20786;-48
2021/10/11 12:57:48;;;;;;;2.90;2.60;;;;;;;;;;5101021;28;20135;-49
2021/10/11 13:11:39;;;;;;;3.53;2.78;;;;;;;;;;5100169;27;20327;-47
2021/10/11 13:14:05;;;;;;;3.35;2.60;;;;;;;;;;5109573;28;20055;-48
2021/10/11 13:16:32;;;;;;;3.20;2.90;;;;;;;;;;5102595;28;20076;-48
2021/10/11 13:18:58;;;;;;;3.92;3.00;;;;;;;;;;5095363;28;20020;-47
2021/10/11 13:21:24;;;;;;;3.50;2.47;;;;;;;;;;5104537;28;20023;-47
2021/10/11 13:23:50;;;;;;;4.38;2.70;;;;;;;;;;5104124;28;20028;-47
2021/10/11 13:26:16;;;;;;;3.78;2.70;;;;;;;;;;5102981;28;20449;-48
2021/10/11 14:28:05;;;;;;;;;;;;;;;;;;5088156;28;20100;-47
2021/10/11 16:00:43;;;;;;;2.97;1.90;;;;;;;;;;5086469;28;20395;-48
2021/10/11 16:03:18;;;;;;;2.50;1.95;;;;;;;;;;5087250;28;20091;-50
2021/10/11 16:05:44;;;;;;;2.50;2.05;;;;;;;;;;5085236;28;20031;-50
2021/10/11 16:08:10;;;;;;;4.45;2.67;;;;;;;;;;5087363;28;20028;-52
2021/10/11 16:10:36;;;;;;;3.70;2.65;;;;;;;;;;5087245;28;20028;-49
2021/10/11 16:13:02;;;;;;;4.07;2.50;;;;;;;;;;5086036;28;20379;-50
2021/10/11 16:15:28;;;;;;;3.28;2.22;;;;;;;;;;5085697;28;20451;-49
2021/10/11 16:17:55;;;;;;;2.72;2.00;;;;;;;;;;5086275;28;20081;-50
2021/10/11 16:20:21;;;;;;;4.13;2.60;;;;;;;;;;5086662;28;20027;-51
2021/10/11 16:22:47;;;;;;;3.20;2.30;;;;;;;;;;5085823;28;20024;-49
2021/10/11 16:25:13;;;;;;;2.85;2.25;;;;;;;;;;5085590;28;20035;-50
2021/10/11 16:27:39;;;;;;;2.80;2.13;;;;;;;;;;5085307;28;20036;-52
2021/10/11 16:30:05;;;;;;;3.50;2.70;;;;;;;;;;5084739;28;20552;-49
2021/10/11 16:32:32;;;;;;;4.45;2.95;;;;;;;;;;5085564;28;20028;-52
2021/10/11 16:34:58;;;;;;;4.10;2.53;;;;;;;;;;5085694;28;20065;-53
2021/10/11 16:37:24;;;;;;;4.63;2.90;;;;;;;;;;5085979;28;20028;-52
2021/10/11 16:39:50;;;;;;;3.35;2.70;;;;;;;;;;5083564;28;20437;-50
2021/10/11 16:42:16;;;;;;;3.25;2.60;;;;;;;;;;5084535;28;20503;-50
2021/10/11 16:44:42;;;;;;;3.10;2.58;;;;;;;;;;5085147;28;20024;-53
2021/10/11 16:47:09;;;;;;;3.30;2.25;;;;;;;;;;5085175;28;20028;-52
2021/10/11 16:49:36;;;;;;;2.78;2.17;;;;;;;;;;5085198;28;20051;-52
2021/10/11 16:52:01;;;;;;;3.50;2.50;;;;;;;;;;5084982;28;20475;-49
2021/10/11 16:54:28;;;;;;;3.15;2.10;;;;;;;;;;5085194;28;20059;-50
2021/10/11 16:56:54;;;;;;;2.53;2.03;;;;;;;;;;5076816;28;20060;-50
2021/10/11 16:59:20;;;;;;;2.90;2.30;;;;;;;;;;5074269;28;20501;-53
2021/10/11 17:01:46;;;;;;;2.50;2.30;;;;;;;;;;5080753;28;20675;-50
2021/10/11 17:04:12;;;;;;;3.67;2.35;;;;;;;;;;5076210;28;20028;-50
2021/10/11 17:06:39;;;;;;;3.33;2.70;;;;;;;;;;5070854;28;20047;-53
2021/10/11 17:09:06;;;;;;;2.58;2.10;;;;;;;;;;5088810;28;20052;-52
2021/10/11 17:11:32;;;;;;;2.97;2.47;;;;;;;;;;5087959;28;20123;-51
2021/10/11 17:13:59;;;;;;;3.28;2.45;;;;;;;;;;5085769;28;20119;-49
2021/10/11 17:16:26;;;;;;;2.92;2.38;;;;;;;;;;5084569;28;20028;-51
2021/10/11 17:18:54;;;;;;;3.25;2.50;;;;;;;;;;5086579;28;20495;-50
2021/10/11 17:21:20;;;;;;;2.17;1.98;;;;;;;;;;5086224;28;20495;-53
2021/10/11 17:23:46;;;;;;;2.95;2.30;;;;;;;;;;5076862;28;20449;-50
2021/10/11 17:26:12;;;;;;;2.75;2.38;;;;;;;;;;5084508;28;20396;-49